createdAt,value
2017-07-08T11:17:54.750Z,3.70
2017-07-08T11:20:22.298Z,3.80
2017-07-08T11:22:49.817Z,3.70
2017-07-08T11:25:17.338Z,3.77
2017-07-08T11:27:44.882Z,3.93
2017-07-08T11:30:12.411Z,4.00
2017-07-08T11:32:40.715Z,3.70
2017-07-08T11:35:08.228Z,4.00
2017-07-08T11:37:35.769Z,3.37
2017-07-08T11:40:03.288Z,4.20
2017-07-08T11:42:30.819Z,3.90
2017-07-08T11:44:59.116Z,3.50
2017-07-08T11:47:26.654Z,3.70
2017-07-08T11:49:54.974Z,3.80
2017-07-08T11:52:22.500Z,3.47
2017-07-08T11:54:50.798Z,3.80
2017-07-08T11:57:18.326Z,3.13
2017-07-08T11:59:46.635Z,3.70
2017-07-08T12:02:14.163Z,3.90
2017-07-08T12:04:42.473Z,3.07
2017-07-08T12:07:09.995Z,2.80
2017-07-08T12:09:37.523Z,3.63
2017-07-08T12:12:05.064Z,3.27
2017-07-08T12:14:32.590Z,2.93
2017-07-08T12:17:00.895Z,3.10
2017-07-08T12:19:28.422Z,3.10
2017-07-08T12:21:56.739Z,2.90
2017-07-08T12:24:24.280Z,3.30
2017-07-08T12:26:51.841Z,3.00
2017-07-08T12:29:19.362Z,3.20
2017-07-08T12:31:47.638Z,3.17
2017-07-08T12:34:15.198Z,2.50
2017-07-08T12:36:42.723Z,3.03
2017-07-08T12:39:10.263Z,3.03
2017-07-08T12:41:37.778Z,2.73
2017-07-08T12:44:07.009Z,3.37
2017-07-08T12:46:34.538Z,3.07
2017-07-08T12:49:02.952Z,3.37
2017-07-08T12:51:30.489Z,3.10
2017-07-08T12:53:58.015Z,3.30
2017-07-08T12:56:25.557Z,2.77
2017-07-08T12:58:53.355Z,3.13
2017-07-08T13:01:21.668Z,3.67
2017-07-08T13:03:49.198Z,3.53
2017-07-08T13:06:16.750Z,3.80
2017-07-08T13:08:44.277Z,4.00
2017-07-08T13:11:11.798Z,4.03
2017-07-08T13:13:39.333Z,3.97
2017-07-08T13:16:07.644Z,3.70
2017-07-08T13:18:35.177Z,4.23
2017-07-08T13:21:02.765Z,3.27
2017-07-08T13:23:30.310Z,3.00
2017-07-08T13:25:57.904Z,2.70
2017-07-08T13:28:25.412Z,2.63
2017-07-08T13:30:52.971Z,2.77
2017-07-08T13:33:20.515Z,2.30
2017-07-08T13:35:48.818Z,2.23
2017-07-08T13:38:16.349Z,3.00
2017-07-08T13:40:44.656Z,2.30
2017-07-08T13:43:12.165Z,2.70
2017-07-08T13:45:39.702Z,2.53
2017-07-08T13:48:07.237Z,2.10
2017-07-08T13:50:34.761Z,2.60
2017-07-08T13:53:03.114Z,2.73
2017-07-08T13:55:30.624Z,2.80
2017-07-08T13:57:58.158Z,2.90
2017-07-08T14:00:25.672Z,2.40
2017-07-08T14:02:53.207Z,2.87
2017-07-08T14:05:20.725Z,2.83
2017-07-08T14:07:48.261Z,2.10
2017-07-08T14:10:15.835Z,2.30
2017-07-08T14:12:43.350Z,2.50
2017-07-08T14:15:10.909Z,2.27
2017-07-08T14:17:38.448Z,2.47
2017-07-08T14:20:05.959Z,2.53
2017-07-08T14:22:33.494Z,2.20
2017-07-08T14:25:01.008Z,2.73
2017-07-08T14:27:29.315Z,2.33
2017-07-08T14:29:56.862Z,2.77
2017-07-08T14:32:24.386Z,3.87
2017-07-08T14:34:51.914Z,2.97
2017-07-08T14:37:19.434Z,3.10
2017-07-08T14:39:46.979Z,3.10
2017-07-08T14:42:14.510Z,3.27
2017-07-08T14:44:42.046Z,3.30
2017-07-08T14:47:09.607Z,4.10
2017-07-08T14:49:37.132Z,3.77
2017-07-08T14:52:04.678Z,4.03
2017-07-08T14:54:32.202Z,4.27
2017-07-08T14:56:59.786Z,3.70
2017-07-08T14:59:28.077Z,4.20
2017-07-08T15:01:55.613Z,3.60
2017-07-08T15:04:23.893Z,3.53
2017-07-08T15:06:52.201Z,3.17
2017-07-08T15:09:19.714Z,3.60
2017-07-08T15:11:47.253Z,3.40
2017-07-08T15:14:14.763Z,3.23
2017-07-08T15:16:42.285Z,3.67
2017-07-08T15:19:09.832Z,3.40
2017-07-08T15:21:37.355Z,3.60
2017-07-08T15:24:04.895Z,3.03
2017-07-08T15:26:32.413Z,3.47
2017-07-08T15:28:59.950Z,3.83
2017-07-08T15:31:27.656Z,3.50
2017-07-08T15:33:55.345Z,3.53
2017-07-08T15:36:22.954Z,3.67
2017-07-08T15:38:52.038Z,3.40
2017-07-08T15:41:19.553Z,3.47
2017-07-08T15:43:47.082Z,3.63
2017-07-08T15:46:14.621Z,3.60
2017-07-08T15:48:42.130Z,3.93
2017-07-08T15:51:12.906Z,3.53
2017-07-08T15:53:40.419Z,3.97
2017-07-08T15:56:07.947Z,4.03
2017-07-08T15:58:35.495Z,3.80
2017-07-08T16:01:03.010Z,3.80
2017-07-08T16:03:30.544Z,3.80
2017-07-08T16:05:58.826Z,3.77
2017-07-08T16:08:26.366Z,3.80
2017-07-08T16:10:54.678Z,3.60
2017-07-08T16:13:22.222Z,3.47
2017-07-08T16:15:49.744Z,3.67
2017-07-08T16:18:17.266Z,3.60
2017-07-08T16:20:44.816Z,3.70
2017-07-08T16:23:12.332Z,3.60
2017-07-08T16:25:39.860Z,4.10
2017-07-08T16:28:07.387Z,3.53
2017-07-08T16:30:34.926Z,3.73
2017-07-08T16:33:02.456Z,3.90
2017-07-08T16:35:30.000Z,3.97
2017-07-08T16:37:57.525Z,3.63
2017-07-08T16:40:25.050Z,3.77
2017-07-08T16:42:53.359Z,4.07
2017-07-08T16:45:20.883Z,4.13
2017-07-08T16:47:49.189Z,3.93
2017-07-08T16:50:16.708Z,3.77
2017-07-08T16:52:44.242Z,4.30
2017-07-08T16:55:11.769Z,4.63
2017-07-08T16:57:39.323Z,4.30
2017-07-08T17:00:06.844Z,4.80
2017-07-08T17:02:35.129Z,3.83
2017-07-08T17:05:03.420Z,3.67
2017-07-08T17:07:30.942Z,4.20
2017-07-08T17:09:58.477Z,4.20
2017-07-08T17:12:26.000Z,4.63
2017-07-08T17:14:53.533Z,4.80
2017-07-08T17:17:21.828Z,4.43
2017-07-08T17:19:49.418Z,4.80
2017-07-08T17:22:16.929Z,5.40
2017-07-08T17:24:45.209Z,4.57
2017-07-08T17:27:13.519Z,4.77
2017-07-08T17:29:41.030Z,4.10
2017-07-08T17:32:08.573Z,4.77
2017-07-08T17:34:36.087Z,5.00
2017-07-08T17:37:03.627Z,5.27
2017-07-08T17:39:31.919Z,4.57
2017-07-08T17:41:59.461Z,4.33
2017-07-08T17:44:27.061Z,4.77
2017-07-08T17:46:55.373Z,4.90
2017-07-08T17:49:22.908Z,4.23
2017-07-08T17:51:50.420Z,4.40
2017-07-08T17:54:18.731Z,4.53
2017-07-08T17:56:46.255Z,4.07
2017-07-08T17:59:14.553Z,4.20
2017-07-08T18:01:42.080Z,4.13
2017-07-08T18:04:10.414Z,4.80
2017-07-08T18:06:37.946Z,4.30
2017-07-08T18:09:05.519Z,4.10
2017-07-08T18:11:33.048Z,4.70
2017-07-08T18:14:00.563Z,4.27
2017-07-08T18:16:28.109Z,5.80
2017-07-08T18:18:55.623Z,6.57
2017-07-08T18:21:23.213Z,5.33
2017-07-08T18:23:50.729Z,4.70
2017-07-08T18:26:19.057Z,5.10
2017-07-08T18:28:46.571Z,4.43
2017-07-08T18:31:14.100Z,4.10
2017-07-08T18:33:41.650Z,4.27
2017-07-08T18:36:09.174Z,4.10
2017-07-08T18:38:36.714Z,3.60
2017-07-08T18:41:04.797Z,4.63
2017-07-08T18:43:33.172Z,4.23
2017-07-08T18:46:00.689Z,4.10
2017-07-08T18:48:28.233Z,3.87
2017-07-08T18:50:55.754Z,4.10
2017-07-08T18:53:23.272Z,3.73
2017-07-08T18:55:50.809Z,4.37
2017-07-08T18:58:18.350Z,3.90
2017-07-08T19:00:45.895Z,4.00
2017-07-08T19:03:13.413Z,4.20
2017-07-08T19:05:41.714Z,4.50
2017-07-08T19:08:09.233Z,4.40
2017-07-08T19:10:36.767Z,4.30
2017-07-08T19:13:04.356Z,4.33
2017-07-08T19:15:31.834Z,4.10
2017-07-08T19:17:59.395Z,4.80
2017-07-08T19:20:27.684Z,4.43
2017-07-08T19:22:55.221Z,4.57
2017-07-08T19:25:23.509Z,4.80
2017-07-08T19:27:51.041Z,4.40
2017-07-08T19:30:18.567Z,4.60
2017-07-08T19:32:46.105Z,4.73
2017-07-08T19:35:13.637Z,4.40
2017-07-08T19:37:41.916Z,5.10
2017-07-08T19:40:09.477Z,5.17
2017-07-08T19:42:38.753Z,5.90
2017-07-08T19:45:06.290Z,4.90
2017-07-08T19:47:33.830Z,4.40
2017-07-08T19:50:01.382Z,5.60
2017-07-08T19:52:28.901Z,4.53
2017-07-08T19:54:57.219Z,4.90
2017-07-08T19:57:24.745Z,5.57
2017-07-08T19:59:53.048Z,5.23
2017-07-08T20:02:20.588Z,5.30
2017-07-08T20:04:48.105Z,4.70
2017-07-08T20:07:15.646Z,5.00
2017-07-08T20:09:43.167Z,4.60
2017-07-08T20:12:10.712Z,4.90
2017-07-08T20:14:38.997Z,4.90
2017-07-08T20:17:06.553Z,5.30
2017-07-08T20:19:34.068Z,5.83
2017-07-08T20:22:01.594Z,4.97
2017-07-08T20:24:29.142Z,5.00
2017-07-08T20:26:56.672Z,5.30
2017-07-08T20:29:24.986Z,5.23
2017-07-08T20:31:52.504Z,4.93
2017-07-08T20:34:20.823Z,4.90
2017-07-08T20:36:48.341Z,5.47
2017-07-08T20:39:15.909Z,5.90
2017-07-08T20:41:44.189Z,6.80
2017-07-08T20:44:12.469Z,5.57
2017-07-08T20:46:40.010Z,6.30
2017-07-08T20:49:08.325Z,6.07
2017-07-08T20:51:35.866Z,6.60
2017-07-08T20:54:03.381Z,5.57
2017-07-08T20:56:30.927Z,6.33
2017-07-08T20:58:58.449Z,7.37
2017-07-08T21:01:25.977Z,6.43
2017-07-08T21:03:54.263Z,6.00
2017-07-08T21:06:22.581Z,7.00
2017-07-08T21:08:50.099Z,6.67
2017-07-08T21:11:17.626Z,6.57
2017-07-08T21:13:45.162Z,6.03
2017-07-08T21:16:12.696Z,6.63
2017-07-08T21:18:40.245Z,7.00
2017-07-08T21:21:07.773Z,6.10
2017-07-08T21:23:35.302Z,6.47
2017-07-08T21:26:02.825Z,6.20
2017-07-08T21:28:30.366Z,6.00
2017-07-08T21:30:58.658Z,6.50
2017-07-08T21:33:26.226Z,6.50
2017-07-08T21:35:53.749Z,7.03
2017-07-08T21:38:21.269Z,5.73
2017-07-08T21:40:48.807Z,5.80
2017-07-08T21:43:16.332Z,6.37
2017-07-08T21:45:44.628Z,6.30
2017-07-08T21:48:12.147Z,6.50
2017-07-08T21:50:39.687Z,6.67
2017-07-08T21:53:07.213Z,6.50
2017-07-08T21:55:34.757Z,6.27
2017-07-08T21:58:02.273Z,6.93
2017-07-08T22:00:29.820Z,6.10
2017-07-08T22:02:57.363Z,6.60
2017-07-08T22:05:24.887Z,7.30
2017-07-08T22:07:53.195Z,6.30
2017-07-08T22:10:20.723Z,6.07
2017-07-08T22:12:49.034Z,6.67
2017-07-08T22:15:16.562Z,6.67
2017-07-08T22:17:44.096Z,6.30
2017-07-08T22:20:12.401Z,6.60
2017-07-08T22:22:39.938Z,6.50
2017-07-08T22:25:08.607Z,7.23
2017-07-08T22:27:36.193Z,6.97
2017-07-08T22:30:04.547Z,6.70
2017-07-08T22:32:32.148Z,6.63
2017-07-08T22:34:59.745Z,6.83
2017-07-08T22:37:27.318Z,7.03
2017-07-08T22:39:54.913Z,6.30
2017-07-08T22:42:22.480Z,7.17
2017-07-08T22:44:50.054Z,7.80
2017-07-08T22:47:17.612Z,6.50
2017-07-08T22:49:45.194Z,7.50
2017-07-08T22:52:12.768Z,7.77
2017-07-08T22:54:40.360Z,7.10
2017-07-08T22:57:08.792Z,8.23
2017-07-08T22:59:36.350Z,8.40
2017-07-08T23:02:03.915Z,7.73
2017-07-08T23:04:31.471Z,8.40
2017-07-08T23:06:59.048Z,7.17
2017-07-08T23:09:26.604Z,8.03
2017-07-08T23:11:54.180Z,7.47
2017-07-08T23:14:21.741Z,8.23
2017-07-08T23:16:49.323Z,8.20
2017-07-08T23:19:17.659Z,7.87
2017-07-08T23:21:45.256Z,9.07
2017-07-08T23:24:13.592Z,8.50
2017-07-08T23:26:41.163Z,9.27
2017-07-08T23:29:08.802Z,9.70
2017-07-08T23:31:36.355Z,8.70
2017-07-08T23:34:03.959Z,9.10
2017-07-08T23:36:31.532Z,9.70
2017-07-08T23:38:59.894Z,8.53
2017-07-08T23:41:27.459Z,9.03
2017-07-08T23:43:55.035Z,8.57
2017-07-08T23:46:22.598Z,8.20
2017-07-08T23:48:50.965Z,8.73
2017-07-08T23:51:19.400Z,8.03
2017-07-08T23:53:46.964Z,7.67
2017-07-08T23:56:14.543Z,8.13
2017-07-08T23:58:42.104Z,8.57
